PRGTE SBTF-SBBV
Flight info
| Callsign | PRGTE |
|---|---|
| Flight time | 1h 32m |
| Altitude | 35000 |
| Route | MUDER UL306 OSARO UM402 ANBIX |
| Aircraft | E135/L-L/2000 |
Departure
| Time | 2026-04-27 18:49 |
|---|---|
| Airport | Tefé Airport (SBTF) |
Arrival
| Time | 2026-04-27 20:21 |
|---|---|
| Airport | Atlas Brasil Cantanhede International Airport (SBBV) |
| Time | Latitude | Longitude | Altitude | Speed | Heading |
|---|---|---|---|---|---|
| 2026-04-27 18:26 | -3.37960 | -64.72395 | 194 ft | 0 kts | 10° |
| 2026-04-27 18:42 | -3.37967 | -64.72397 | 194 ft | 2 kts | 10° |
| 2026-04-27 18:42 | -3.37982 | -64.72401 | 193 ft | 2 kts | 36° |
| 2026-04-27 18:43 | -3.37988 | -64.72413 | 193 ft | 2 kts | 95° |
| 2026-04-27 18:43 | -3.37983 | -64.72424 | 193 ft | 1 kts | 140° |
| 2026-04-27 18:43 | -3.37981 | -64.72425 | 193 ft | 0 kts | 140° |
| 2026-04-27 18:44 | -3.37984 | -64.72423 | 193 ft | 1 kts | 138° |
| 2026-04-27 18:45 | -3.37994 | -64.72413 | 193 ft | 2 kts | 136° |
| 2026-04-27 18:45 | -3.38017 | -64.72395 | 192 ft | 5 kts | 157° |
| 2026-04-27 18:45 | -3.38061 | -64.72415 | 191 ft | 9 kts | 227° |
| 2026-04-27 18:45 | -3.38118 | -64.72482 | 187 ft | 15 kts | 229° |
| 2026-04-27 18:46 | -3.38210 | -64.72498 | 187 ft | 15 kts | 130° |
| 2026-04-27 18:46 | -3.38281 | -64.72422 | 187 ft | 15 kts | 137° |
| 2026-04-27 18:46 | -3.38361 | -64.72348 | 187 ft | 16 kts | 137° |
| 2026-04-27 18:46 | -3.38447 | -64.72271 | 187 ft | 17 kts | 138° |
| 2026-04-27 18:47 | -3.38540 | -64.72188 | 187 ft | 18 kts | 138° |
| 2026-04-27 18:47 | -3.38635 | -64.72101 | 187 ft | 19 kts | 137° |
| 2026-04-27 18:47 | -3.38735 | -64.72008 | 187 ft | 20 kts | 138° |
| 2026-04-27 18:47 | -3.38842 | -64.71914 | 187 ft | 20 kts | 137° |
| 2026-04-27 18:48 | -3.38952 | -64.71816 | 187 ft | 21 kts | 140° |
| 2026-04-27 18:48 | -3.39035 | -64.71756 | 187 ft | 6 kts | 67° |
| 2026-04-27 18:48 | -3.39019 | -64.71753 | 187 ft | 0 kts | 320° |
| 2026-04-27 18:48 | -3.38984 | -64.71783 | 187 ft | 23 kts | 318° |
| 2026-04-27 18:49 | -3.38642 | -64.72096 | 187 ft | 110 kts | 319° |
| 2026-04-27 18:49 | -3.37889 | -64.72786 | 418 ft | 167 kts | 318° |
| 2026-04-27 18:49 | -3.37051 | -64.73611 | 1348 ft | 179 kts | 317° |
| 2026-04-27 18:49 | -3.36178 | -64.74509 | 2057 ft | 201 kts | 318° |
| 2026-04-27 18:50 | -3.34688 | -64.75197 | 1510 ft | 279 kts | 354° |
| 2026-04-27 18:50 | -3.32565 | -64.74887 | 1116 ft | 341 kts | 26° |
| 2026-04-27 18:50 | -3.31047 | -64.73315 | 3257 ft | 313 kts | 60° |
| 2026-04-27 18:50 | -3.30210 | -64.71206 | 3527 ft | 351 kts | 83° |
| 2026-04-27 18:51 | -3.30693 | -64.69027 | 5647 ft | 325 kts | 112° |
| 2026-04-27 18:51 | -3.31991 | -64.67022 | 5822 ft | 362 kts | 139° |
| 2026-04-27 18:51 | -3.34095 | -64.66036 | 7721 ft | 344 kts | 159° |
| 2026-04-27 18:51 | -3.36473 | -64.65216 | 8246 ft | 365 kts | 160° |
| 2026-04-27 18:52 | -3.38766 | -64.64442 | 9328 ft | 370 kts | 160° |
| 2026-04-27 18:52 | -3.41091 | -64.63529 | 11082 ft | 345 kts | 148° |
| 2026-04-27 18:52 | -3.42826 | -64.62318 | 13325 ft | 306 kts | 139° |
| 2026-04-27 18:53 | -3.45989 | -64.59113 | 14368 ft | 339 kts | 131° |
| 2026-04-27 18:53 | -3.47572 | -64.57354 | 15307 ft | 341 kts | 131° |
| 2026-04-27 18:53 | -3.49123 | -64.55604 | 16190 ft | 343 kts | 130° |
| 2026-04-27 18:53 | -3.50714 | -64.53799 | 16971 ft | 348 kts | 130° |
| 2026-04-27 18:54 | -3.52311 | -64.51983 | 17723 ft | 353 kts | 130° |
| 2026-04-27 18:54 | -3.53935 | -64.50134 | 18574 ft | 354 kts | 130° |
| 2026-04-27 18:54 | -3.55543 | -64.48305 | 19552 ft | 351 kts | 130° |
| 2026-04-27 18:54 | -3.57146 | -64.46479 | 20451 ft | 349 kts | 130° |
| 2026-04-27 18:55 | -3.58724 | -64.44682 | 21255 ft | 348 kts | 130° |
| 2026-04-27 18:55 | -3.60319 | -64.42866 | 22044 ft | 347 kts | 130° |
| 2026-04-27 18:55 | -3.61897 | -64.41069 | 22814 ft | 346 kts | 130° |
| 2026-04-27 18:55 | -3.63490 | -64.39254 | 23572 ft | 345 kts | 130° |
| 2026-04-27 18:56 | -3.65057 | -64.37470 | 24292 ft | 344 kts | 130° |
| 2026-04-27 18:56 | -3.66622 | -64.35687 | 24989 ft | 343 kts | 130° |
| 2026-04-27 18:56 | -3.68201 | -64.33877 | 25671 ft | 342 kts | 128° |
| 2026-04-27 18:56 | -3.69220 | -64.31783 | 26258 ft | 340 kts | 100° |
| 2026-04-27 18:57 | -3.69157 | -64.29455 | 26827 ft | 337 kts | 73° |
| 2026-04-27 18:57 | -3.68160 | -64.27350 | 27411 ft | 336 kts | 59° |
| 2026-04-27 18:57 | -3.66960 | -64.25361 | 28002 ft | 335 kts | 57° |
| 2026-04-27 18:57 | -3.65697 | -64.23390 | 28580 ft | 334 kts | 56° |
| 2026-04-27 18:58 | -3.64425 | -64.21451 | 29139 ft | 333 kts | 56° |
| 2026-04-27 18:58 | -3.63581 | -64.20175 | 29498 ft | 333 kts | 56° |
| 2026-04-27 18:58 | -3.61874 | -64.17603 | 30200 ft | 332 kts | 56° |
| 2026-04-27 18:58 | -3.60608 | -64.15698 | 30700 ft | 331 kts | 56° |
| 2026-04-27 18:59 | -3.59331 | -64.13779 | 31189 ft | 330 kts | 56° |
| 2026-04-27 18:59 | -3.58073 | -64.11889 | 31656 ft | 330 kts | 56° |
| 2026-04-27 18:59 | -3.56801 | -64.09978 | 32114 ft | 329 kts | 56° |
| 2026-04-27 18:59 | -3.55545 | -64.08090 | 32551 ft | 328 kts | 56° |
| 2026-04-27 19:00 | -3.54286 | -64.06200 | 32976 ft | 328 kts | 56° |
| 2026-04-27 19:00 | -3.53016 | -64.04291 | 33392 ft | 327 kts | 56° |
| 2026-04-27 19:00 | -3.51772 | -64.02422 | 33787 ft | 326 kts | 56° |
| 2026-04-27 19:00 | -3.50505 | -64.00520 | 34176 ft | 326 kts | 56° |
| 2026-04-27 19:01 | -3.49259 | -63.98648 | 34549 ft | 325 kts | 56° |
| 2026-04-27 19:01 | -3.48011 | -63.96774 | 34856 ft | 327 kts | 56° |
| 2026-04-27 19:01 | -3.46734 | -63.94857 | 34886 ft | 338 kts | 56° |
| 2026-04-27 19:01 | -3.45416 | -63.92877 | 34899 ft | 349 kts | 56° |
| 2026-04-27 19:02 | -3.44043 | -63.90816 | 34900 ft | 361 kts | 56° |
| 2026-04-27 19:02 | -3.42630 | -63.88694 | 34900 ft | 374 kts | 56° |
| 2026-04-27 19:02 | -3.41166 | -63.86495 | 34899 ft | 386 kts | 56° |
| 2026-04-27 19:02 | -3.39652 | -63.84223 | 34898 ft | 398 kts | 56° |
| 2026-04-27 19:03 | -3.38096 | -63.81887 | 34898 ft | 410 kts | 56° |
| 2026-04-27 19:03 | -3.36495 | -63.79483 | 34897 ft | 422 kts | 56° |
| 2026-04-27 19:03 | -3.34859 | -63.77028 | 34895 ft | 430 kts | 56° |
| 2026-04-27 19:04 | -3.31489 | -63.71970 | 34887 ft | 438 kts | 56° |
| 2026-04-27 19:04 | -3.28118 | -63.66913 | 34847 ft | 440 kts | 56° |
| 2026-04-27 19:05 | -3.24734 | -63.61838 | 34831 ft | 442 kts | 56° |
| 2026-04-27 19:05 | -3.21313 | -63.56708 | 34831 ft | 443 kts | 56° |
| 2026-04-27 19:06 | -3.17910 | -63.51606 | 34831 ft | 443 kts | 56° |
| 2026-04-27 19:06 | -3.14488 | -63.46475 | 34831 ft | 444 kts | 56° |
| 2026-04-27 19:07 | -3.11071 | -63.41354 | 34831 ft | 445 kts | 56° |
| 2026-04-27 19:07 | -3.07652 | -63.36225 | 34988 ft | 442 kts | 56° |
| 2026-04-27 19:08 | -3.04224 | -63.31092 | 34999 ft | 443 kts | 56° |
| 2026-04-27 19:08 | -3.00808 | -63.25975 | 35000 ft | 444 kts | 56° |
| 2026-04-27 19:09 | -2.97378 | -63.20835 | 35000 ft | 445 kts | 56° |
| 2026-04-27 19:09 | -2.93954 | -63.15707 | 35000 ft | 446 kts | 56° |
| 2026-04-27 19:10 | -2.90517 | -63.10559 | 35000 ft | 447 kts | 56° |
| 2026-04-27 19:10 | -2.87057 | -63.05377 | 35000 ft | 447 kts | 56° |
| 2026-04-27 19:11 | -2.83601 | -63.00203 | 35000 ft | 448 kts | 56° |
| 2026-04-27 19:11 | -2.80135 | -62.95014 | 35000 ft | 448 kts | 56° |
| 2026-04-27 19:12 | -2.76695 | -62.89864 | 35000 ft | 449 kts | 56° |
| 2026-04-27 19:12 | -2.73465 | -62.85029 | 35000 ft | 449 kts | 56° |
| 2026-04-27 19:13 | -2.69738 | -62.79451 | 35000 ft | 450 kts | 56° |
| 2026-04-27 19:13 | -2.66236 | -62.74211 | 35000 ft | 450 kts | 56° |
| 2026-04-27 19:14 | -2.62749 | -62.68993 | 35000 ft | 450 kts | 56° |
| 2026-04-27 19:14 | -2.59263 | -62.63779 | 35000 ft | 451 kts | 56° |
| 2026-04-27 19:15 | -2.55764 | -62.58546 | 35000 ft | 451 kts | 56° |
| 2026-04-27 19:15 | -2.52251 | -62.53294 | 35000 ft | 451 kts | 56° |
| 2026-04-27 19:16 | -2.48765 | -62.48081 | 35000 ft | 451 kts | 56° |
| 2026-04-27 19:16 | -2.45276 | -62.42866 | 35000 ft | 451 kts | 56° |
| 2026-04-27 19:17 | -2.41792 | -62.37659 | 35000 ft | 451 kts | 56° |
| 2026-04-27 19:17 | -2.38305 | -62.32446 | 35000 ft | 452 kts | 56° |
| 2026-04-27 19:18 | -2.34808 | -62.27221 | 35000 ft | 452 kts | 56° |
| 2026-04-27 19:18 | -2.31327 | -62.22019 | 35000 ft | 452 kts | 56° |
| 2026-04-27 19:19 | -2.27818 | -62.16775 | 35000 ft | 452 kts | 56° |
| 2026-04-27 19:19 | -2.24338 | -62.11577 | 35000 ft | 452 kts | 56° |
| 2026-04-27 19:20 | -2.20856 | -62.06374 | 34998 ft | 450 kts | 56° |
| 2026-04-27 19:20 | -2.17401 | -62.01212 | 34998 ft | 446 kts | 56° |
| 2026-04-27 19:21 | -2.13972 | -61.96089 | 34998 ft | 443 kts | 56° |
| 2026-04-27 19:21 | -2.10528 | -61.90944 | 34998 ft | 440 kts | 56° |
| 2026-04-27 19:22 | -2.07119 | -61.85852 | 34998 ft | 438 kts | 56° |
| 2026-04-27 19:22 | -2.03761 | -61.80837 | 34999 ft | 436 kts | 56° |
| 2026-04-27 19:23 | -2.00388 | -61.75794 | 34999 ft | 434 kts | 56° |
| 2026-04-27 19:23 | -1.97028 | -61.70781 | 34999 ft | 432 kts | 56° |
| 2026-04-27 19:24 | -1.93689 | -61.65796 | 34999 ft | 431 kts | 56° |
| 2026-04-27 19:24 | -1.90323 | -61.60769 | 34999 ft | 429 kts | 56° |
| 2026-04-27 19:25 | -1.86962 | -61.55752 | 34999 ft | 428 kts | 56° |
| 2026-04-27 19:25 | -1.83643 | -61.50797 | 34999 ft | 427 kts | 56° |
| 2026-04-27 19:26 | -1.80325 | -61.45845 | 34999 ft | 426 kts | 56° |
| 2026-04-27 19:26 | -1.77015 | -61.40905 | 34999 ft | 425 kts | 56° |
| 2026-04-27 19:27 | -1.73679 | -61.35925 | 34999 ft | 425 kts | 56° |
| 2026-04-27 19:27 | -1.70409 | -61.31044 | 34999 ft | 424 kts | 56° |
| 2026-04-27 19:28 | -1.67121 | -61.26138 | 34999 ft | 423 kts | 56° |
| 2026-04-27 19:28 | -1.63871 | -61.21288 | 34999 ft | 423 kts | 56° |
| 2026-04-27 19:29 | -1.60579 | -61.16377 | 34999 ft | 422 kts | 56° |
| 2026-04-27 19:29 | -1.57320 | -61.11515 | 34999 ft | 422 kts | 56° |
| 2026-04-27 19:30 | -1.54052 | -61.06641 | 34999 ft | 421 kts | 56° |
| 2026-04-27 19:30 | -1.50779 | -61.01758 | 34999 ft | 421 kts | 56° |
| 2026-04-27 19:31 | -1.47514 | -60.96890 | 34999 ft | 421 kts | 56° |
| 2026-04-27 19:31 | -1.44250 | -60.92021 | 34999 ft | 421 kts | 56° |
| 2026-04-27 19:32 | -1.41032 | -60.87223 | 34999 ft | 420 kts | 56° |
| 2026-04-27 19:32 | -1.37750 | -60.82329 | 34999 ft | 420 kts | 56° |
| 2026-04-27 19:33 | -1.34836 | -60.77304 | 35003 ft | 420 kts | 62° |
| 2026-04-27 19:33 | -1.32126 | -60.72078 | 34999 ft | 420 kts | 63° |
| 2026-04-27 19:34 | -1.29456 | -60.66906 | 34999 ft | 420 kts | 63° |
| 2026-04-27 19:34 | -1.26772 | -60.61708 | 35000 ft | 419 kts | 63° |
| 2026-04-27 19:35 | -1.24102 | -60.56535 | 35000 ft | 419 kts | 63° |
| 2026-04-27 19:35 | -1.21434 | -60.51366 | 35000 ft | 419 kts | 63° |
| 2026-04-27 19:36 | -1.18774 | -60.46206 | 35000 ft | 419 kts | 63° |
| 2026-04-27 19:36 | -1.16102 | -60.41021 | 35000 ft | 419 kts | 63° |
| 2026-04-27 19:37 | -1.13422 | -60.35818 | 35000 ft | 419 kts | 63° |
| 2026-04-27 19:37 | -1.10682 | -60.30678 | 34981 ft | 419 kts | 54° |
| 2026-04-27 19:37 | -1.08571 | -60.28703 | 35010 ft | 417 kts | 31° |
| 2026-04-27 19:38 | -1.05878 | -60.27637 | 35005 ft | 415 kts | 10° |
| 2026-04-27 19:38 | -1.02995 | -60.27542 | 35027 ft | 414 kts | 356° |
| 2026-04-27 19:38 | -1.00113 | -60.27764 | 35003 ft | 415 kts | 354° |
| 2026-04-27 19:39 | -0.94374 | -60.28355 | 35000 ft | 415 kts | 354° |
| 2026-04-27 19:39 | -0.88696 | -60.28971 | 35000 ft | 416 kts | 354° |
| 2026-04-27 19:40 | -0.82969 | -60.29594 | 35000 ft | 416 kts | 354° |
| 2026-04-27 19:40 | -0.77228 | -60.30220 | 35000 ft | 417 kts | 354° |
| 2026-04-27 19:41 | -0.71474 | -60.30847 | 35000 ft | 417 kts | 354° |
| 2026-04-27 19:41 | -0.65721 | -60.31473 | 35000 ft | 417 kts | 354° |
| 2026-04-27 19:42 | -0.59943 | -60.32103 | 35000 ft | 418 kts | 354° |
| 2026-04-27 19:42 | -0.54217 | -60.32727 | 35000 ft | 418 kts | 354° |
| 2026-04-27 19:43 | -0.48439 | -60.33357 | 35000 ft | 418 kts | 354° |
| 2026-04-27 19:43 | -0.42661 | -60.33986 | 35000 ft | 418 kts | 354° |
| 2026-04-27 19:44 | -0.36921 | -60.34613 | 35000 ft | 419 kts | 354° |
| 2026-04-27 19:44 | -0.31140 | -60.35244 | 35000 ft | 419 kts | 354° |
| 2026-04-27 19:45 | -0.25360 | -60.35875 | 35000 ft | 419 kts | 354° |
| 2026-04-27 19:45 | -0.19567 | -60.36507 | 35000 ft | 419 kts | 354° |
| 2026-04-27 19:46 | -0.13809 | -60.37136 | 35000 ft | 420 kts | 354° |
| 2026-04-27 19:46 | -0.08012 | -60.37769 | 35000 ft | 420 kts | 354° |
| 2026-04-27 19:47 | -0.02223 | -60.38401 | 35000 ft | 420 kts | 354° |
| 2026-04-27 19:47 | 0.03546 | -60.39030 | 35000 ft | 420 kts | 354° |
| 2026-04-27 19:48 | 0.09362 | -60.39665 | 35000 ft | 420 kts | 354° |
| 2026-04-27 19:48 | 0.15158 | -60.40298 | 35000 ft | 421 kts | 354° |
| 2026-04-27 19:49 | 0.20944 | -60.40929 | 35000 ft | 421 kts | 354° |
| 2026-04-27 19:49 | 0.26763 | -60.41565 | 35000 ft | 421 kts | 354° |
| 2026-04-27 19:50 | 0.32561 | -60.42197 | 35000 ft | 421 kts | 354° |
| 2026-04-27 19:50 | 0.38372 | -60.42832 | 35000 ft | 421 kts | 354° |
| 2026-04-27 19:51 | 0.44202 | -60.43469 | 35000 ft | 421 kts | 354° |
| 2026-04-27 19:51 | 0.50018 | -60.44103 | 35000 ft | 422 kts | 354° |
| 2026-04-27 19:52 | 0.55820 | -60.44737 | 35000 ft | 422 kts | 354° |
| 2026-04-27 19:52 | 0.61713 | -60.45380 | 35000 ft | 422 kts | 354° |
| 2026-04-27 19:53 | 0.70450 | -60.46326 | 35000 ft | 422 kts | 354° |
| 2026-04-27 19:53 | 0.76255 | -60.46953 | 35000 ft | 422 kts | 354° |
| 2026-04-27 19:54 | 0.82077 | -60.47582 | 35000 ft | 422 kts | 354° |
| 2026-04-27 19:54 | 0.87912 | -60.48212 | 35000 ft | 423 kts | 354° |
| 2026-04-27 19:55 | 0.93732 | -60.48840 | 35000 ft | 423 kts | 354° |
| 2026-04-27 19:55 | 0.99562 | -60.49469 | 35000 ft | 423 kts | 354° |
| 2026-04-27 19:56 | 1.05460 | -60.50106 | 35000 ft | 423 kts | 354° |
| 2026-04-27 19:56 | 1.11320 | -60.50738 | 35000 ft | 423 kts | 354° |
| 2026-04-27 19:57 | 1.17134 | -60.51366 | 35000 ft | 423 kts | 354° |
| 2026-04-27 19:57 | 1.22986 | -60.51998 | 35000 ft | 423 kts | 354° |
| 2026-04-27 19:58 | 1.28842 | -60.52630 | 34515 ft | 425 kts | 354° |
| 2026-04-27 19:58 | 1.31759 | -60.52945 | 33994 ft | 423 kts | 354° |
| 2026-04-27 19:58 | 1.34626 | -60.53255 | 33472 ft | 419 kts | 354° |
| 2026-04-27 19:59 | 1.37527 | -60.53568 | 32939 ft | 415 kts | 354° |
| 2026-04-27 19:59 | 1.40366 | -60.53874 | 32413 ft | 411 kts | 354° |
| 2026-04-27 19:59 | 1.43192 | -60.54179 | 31886 ft | 407 kts | 354° |
| 2026-04-27 19:59 | 1.45982 | -60.54481 | 31386 ft | 404 kts | 354° |
| 2026-04-27 20:00 | 1.48755 | -60.54780 | 30884 ft | 400 kts | 354° |
| 2026-04-27 20:00 | 1.51493 | -60.55076 | 30367 ft | 397 kts | 354° |
| 2026-04-27 20:00 | 1.54217 | -60.55370 | 29843 ft | 395 kts | 354° |
| 2026-04-27 20:00 | 1.56923 | -60.55662 | 29319 ft | 393 kts | 354° |
| 2026-04-27 20:01 | 1.59628 | -60.55954 | 28793 ft | 391 kts | 354° |
| 2026-04-27 20:01 | 1.62306 | -60.56244 | 28278 ft | 388 kts | 354° |
| 2026-04-27 20:01 | 1.64990 | -60.56533 | 27801 ft | 385 kts | 354° |
| 2026-04-27 20:01 | 1.67628 | -60.56818 | 27326 ft | 382 kts | 354° |
| 2026-04-27 20:02 | 1.70248 | -60.57101 | 26852 ft | 380 kts | 354° |
| 2026-04-27 20:02 | 1.72832 | -60.57381 | 26381 ft | 377 kts | 354° |
| 2026-04-27 20:02 | 1.75443 | -60.57663 | 25902 ft | 375 kts | 354° |
| 2026-04-27 20:02 | 1.78001 | -60.57939 | 25353 ft | 373 kts | 354° |
| 2026-04-27 20:03 | 1.80580 | -60.58218 | 24690 ft | 370 kts | 354° |
| 2026-04-27 20:03 | 1.83091 | -60.58489 | 24198 ft | 364 kts | 354° |
| 2026-04-27 20:03 | 1.85603 | -60.58761 | 23721 ft | 361 kts | 354° |
| 2026-04-27 20:03 | 1.88055 | -60.59025 | 23225 ft | 359 kts | 354° |
| 2026-04-27 20:04 | 1.90539 | -60.59293 | 22727 ft | 356 kts | 354° |
| 2026-04-27 20:04 | 1.92982 | -60.59557 | 22279 ft | 353 kts | 354° |
| 2026-04-27 20:04 | 1.95414 | -60.59820 | 21826 ft | 350 kts | 354° |
| 2026-04-27 20:04 | 1.97007 | -60.59992 | 21528 ft | 348 kts | 354° |
| 2026-04-27 20:05 | 2.00181 | -60.60335 | 20929 ft | 345 kts | 354° |
| 2026-04-27 20:05 | 2.02570 | -60.60593 | 20476 ft | 343 kts | 354° |
| 2026-04-27 20:05 | 2.04927 | -60.60848 | 20004 ft | 342 kts | 354° |
| 2026-04-27 20:05 | 2.07276 | -60.61102 | 19557 ft | 340 kts | 354° |
| 2026-04-27 20:06 | 2.09601 | -60.61353 | 19110 ft | 338 kts | 354° |
| 2026-04-27 20:06 | 2.11932 | -60.61605 | 18659 ft | 337 kts | 354° |
| 2026-04-27 20:06 | 2.14253 | -60.61856 | 18209 ft | 335 kts | 354° |
| 2026-04-27 20:06 | 2.16574 | -60.62106 | 17758 ft | 334 kts | 354° |
| 2026-04-27 20:07 | 2.18791 | -60.62613 | 17290 ft | 331 kts | 334° |
| 2026-04-27 20:07 | 2.20798 | -60.63714 | 16891 ft | 327 kts | 330° |
| 2026-04-27 20:07 | 2.22765 | -60.64842 | 16463 ft | 324 kts | 330° |
| 2026-04-27 20:07 | 2.24671 | -60.65954 | 16061 ft | 317 kts | 329° |
| 2026-04-27 20:08 | 2.26550 | -60.67059 | 15655 ft | 311 kts | 329° |
| 2026-04-27 20:08 | 2.28404 | -60.68151 | 15248 ft | 306 kts | 329° |
| 2026-04-27 20:08 | 2.30226 | -60.69225 | 14857 ft | 302 kts | 329° |
| 2026-04-27 20:08 | 2.32009 | -60.70277 | 14483 ft | 300 kts | 329° |
| 2026-04-27 20:09 | 2.33805 | -60.71336 | 14105 ft | 297 kts | 329° |
| 2026-04-27 20:09 | 2.35565 | -60.72375 | 13731 ft | 295 kts | 329° |
| 2026-04-27 20:09 | 2.37318 | -60.73409 | 13358 ft | 294 kts | 329° |
| 2026-04-27 20:09 | 2.39078 | -60.74447 | 12981 ft | 292 kts | 329° |
| 2026-04-27 20:10 | 2.40828 | -60.75480 | 12604 ft | 291 kts | 329° |
| 2026-04-27 20:10 | 2.42546 | -60.76494 | 12233 ft | 290 kts | 329° |
| 2026-04-27 20:10 | 2.44290 | -60.77523 | 11856 ft | 289 kts | 329° |
| 2026-04-27 20:10 | 2.46000 | -60.78532 | 11484 ft | 288 kts | 329° |
| 2026-04-27 20:11 | 2.47727 | -60.79552 | 11108 ft | 287 kts | 329° |
| 2026-04-27 20:11 | 2.49430 | -60.80557 | 10733 ft | 284 kts | 329° |
| 2026-04-27 20:11 | 2.51106 | -60.81546 | 10367 ft | 280 kts | 329° |
| 2026-04-27 20:11 | 2.52774 | -60.82530 | 10013 ft | 276 kts | 329° |
| 2026-04-27 20:12 | 2.54422 | -60.83503 | 9659 ft | 273 kts | 329° |
| 2026-04-27 20:12 | 2.55497 | -60.84138 | 9426 ft | 271 kts | 329° |
| 2026-04-27 20:12 | 2.57646 | -60.85406 | 8957 ft | 268 kts | 329° |
| 2026-04-27 20:12 | 2.59244 | -60.86350 | 8606 ft | 265 kts | 329° |
| 2026-04-27 20:13 | 2.60816 | -60.87277 | 8250 ft | 259 kts | 329° |
| 2026-04-27 20:13 | 2.62338 | -60.88176 | 7890 ft | 250 kts | 329° |
| 2026-04-27 20:13 | 2.63798 | -60.89037 | 7572 ft | 240 kts | 329° |
| 2026-04-27 20:13 | 2.65202 | -60.89841 | 7277 ft | 229 kts | 336° |
| 2026-04-27 20:14 | 2.66760 | -60.89961 | 6795 ft | 229 kts | 14° |
| 2026-04-27 20:14 | 2.68263 | -60.89483 | 6116 ft | 233 kts | 18° |
| 2026-04-27 20:14 | 2.69803 | -60.88988 | 5399 ft | 236 kts | 18° |
| 2026-04-27 20:14 | 2.71353 | -60.88488 | 4853 ft | 229 kts | 18° |
| 2026-04-27 20:15 | 2.72835 | -60.88011 | 4523 ft | 217 kts | 18° |
| 2026-04-27 20:15 | 2.74212 | -60.87567 | 4318 ft | 195 kts | 18° |
| 2026-04-27 20:15 | 2.75350 | -60.86990 | 4021 ft | 176 kts | 45° |
| 2026-04-27 20:15 | 2.75917 | -60.86026 | 3856 ft | 148 kts | 63° |
| 2026-04-27 20:16 | 2.76356 | -60.85163 | 3748 ft | 135 kts | 63° |
| 2026-04-27 20:16 | 2.76781 | -60.84334 | 3517 ft | 131 kts | 63° |
| 2026-04-27 20:16 | 2.77190 | -60.83535 | 3307 ft | 127 kts | 63° |
| 2026-04-27 20:16 | 2.77586 | -60.82764 | 3119 ft | 124 kts | 63° |
| 2026-04-27 20:17 | 2.77977 | -60.82000 | 2936 ft | 121 kts | 63° |
| 2026-04-27 20:17 | 2.78361 | -60.81250 | 2767 ft | 121 kts | 63° |
| 2026-04-27 20:17 | 2.78745 | -60.80502 | 2600 ft | 121 kts | 63° |
| 2026-04-27 20:17 | 2.79003 | -60.79998 | 2488 ft | 121 kts | 63° |
| 2026-04-27 20:18 | 2.79521 | -60.78988 | 2266 ft | 123 kts | 63° |
| 2026-04-27 20:18 | 2.79912 | -60.78224 | 2099 ft | 125 kts | 63° |
| 2026-04-27 20:18 | 2.80315 | -60.77439 | 1926 ft | 127 kts | 63° |
| 2026-04-27 20:18 | 2.80723 | -60.76642 | 1750 ft | 129 kts | 63° |
| 2026-04-27 20:19 | 2.81117 | -60.75874 | 1579 ft | 130 kts | 63° |
| 2026-04-27 20:19 | 2.81546 | -60.75036 | 1391 ft | 131 kts | 63° |
| 2026-04-27 20:19 | 2.81956 | -60.74236 | 1212 ft | 130 kts | 63° |
| 2026-04-27 20:19 | 2.82366 | -60.73435 | 1033 ft | 127 kts | 63° |
| 2026-04-27 20:20 | 2.82764 | -60.72659 | 861 ft | 123 kts | 63° |
| 2026-04-27 20:20 | 2.83147 | -60.71911 | 700 ft | 121 kts | 63° |
| 2026-04-27 20:20 | 2.83530 | -60.71164 | 540 ft | 119 kts | 63° |
| 2026-04-27 20:20 | 2.83913 | -60.70421 | 374 ft | 119 kts | 63° |
| 2026-04-27 20:21 | 2.84278 | -60.69697 | 274 ft | 112 kts | 63° |
| 2026-04-27 20:21 | 2.84592 | -60.69082 | 269 ft | 83 kts | 62° |
| 2026-04-27 20:21 | 2.84806 | -60.68668 | 269 ft | 37 kts | 63° |
| 2026-04-27 20:21 | 2.84875 | -60.68533 | 269 ft | 17 kts | 63° |
| 2026-04-27 20:22 | 2.84862 | -60.68465 | 269 ft | 2 kts | 156° |
| 2026-04-27 20:22 | 2.84844 | -60.68457 | 269 ft | 3 kts | 156° |
| 2026-04-27 20:22 | 2.84813 | -60.68444 | 269 ft | 6 kts | 155° |
| 2026-04-27 20:22 | 2.84765 | -60.68427 | 269 ft | 8 kts | 196° |
| 2026-04-27 20:23 | 2.84727 | -60.68486 | 269 ft | 11 kts | 243° |
| 2026-04-27 20:23 | 2.84685 | -60.68568 | 269 ft | 14 kts | 243° |
| 2026-04-27 20:23 | 2.84632 | -60.68671 | 269 ft | 18 kts | 243° |
| 2026-04-27 20:23 | 2.84570 | -60.68794 | 269 ft | 21 kts | 244° |
| 2026-04-27 20:24 | 2.84502 | -60.68927 | 269 ft | 21 kts | 243° |
| 2026-04-27 20:24 | 2.84433 | -60.69064 | 269 ft | 22 kts | 243° |
| 2026-04-27 20:24 | 2.84372 | -60.69182 | 272 ft | 14 kts | 243° |
| 2026-04-27 20:24 | 2.84321 | -60.69245 | 273 ft | 9 kts | 174° |
| 2026-04-27 20:25 | 2.84256 | -60.69220 | 273 ft | 10 kts | 158° |
| 2026-04-27 20:25 | 2.84226 | -60.69206 | 273 ft | 0 kts | 153° |